createdAt,value
2022-11-29T00:02:00.818Z,63.90
2022-11-29T00:04:30.634Z,64.00
2022-11-29T00:07:00.496Z,63.90
2022-11-29T00:09:30.314Z,63.90
2022-11-29T00:12:12.203Z,63.90
2022-11-29T00:14:43.141Z,63.90
2022-11-29T00:17:13.004Z,64.00
2022-11-29T00:19:45.122Z,64.00
2022-11-29T00:22:14.897Z,64.00
2022-11-29T00:24:44.871Z,64.00
2022-11-29T00:27:17.368Z,63.90
2022-11-29T00:29:47.259Z,63.90
2022-11-29T00:32:17.032Z,63.90
2022-11-29T00:34:46.880Z,64.00
2022-11-29T00:37:16.675Z,64.10
2022-11-29T00:39:46.531Z,64.10
2022-11-29T00:42:18.981Z,64.10
2022-11-29T00:44:48.754Z,64.10
2022-11-29T00:47:18.635Z,64.10
2022-11-29T00:49:48.432Z,64.30
2022-11-29T00:52:18.269Z,64.50
2022-11-29T00:54:48.142Z,64.40
2022-11-29T00:57:20.477Z,64.50
2022-11-29T00:59:50.257Z,64.60
2022-11-29T01:02:20.142Z,64.70
2022-11-29T01:04:50.009Z,64.80
2022-11-29T01:07:19.847Z,65.20
2022-11-29T01:09:49.595Z,65.20
2022-11-29T01:12:21.971Z,65.40
2022-11-29T01:14:51.700Z,65.30
2022-11-29T01:17:21.518Z,65.30
2022-11-29T01:19:51.306Z,65.30
2022-11-29T01:22:21.128Z,65.40
2022-11-29T01:24:51.175Z,65.30
2022-11-29T01:27:23.603Z,65.30
2022-11-29T01:29:53.488Z,65.60
2022-11-29T01:32:23.359Z,65.70
2022-11-29T01:34:53.407Z,65.80
2022-11-29T01:37:23.250Z,65.90
2022-11-29T01:39:53.231Z,65.90
2022-11-29T01:42:25.724Z,66.10
2022-11-29T01:45:10.999Z,66.10
2022-11-29T01:47:45.606Z,66.20
2022-11-29T01:50:15.847Z,66.30
2022-11-29T01:52:45.712Z,66.30
2022-11-29T01:55:16.147Z,66.40
2022-11-29T01:57:49.454Z,66.40
2022-11-29T02:00:21.836Z,66.40
2022-11-29T02:02:56.782Z,66.50
2022-11-29T02:05:28.336Z,66.50
2022-11-29T02:08:00.405Z,66.60
2022-11-29T02:10:42.859Z,66.80
2022-11-29T02:13:26.533Z,66.70
2022-11-29T02:16:02.744Z,66.80
2022-11-29T02:18:42.919Z,66.90
2022-11-29T02:21:28.574Z,67.00
2022-11-29T02:24:17.744Z,67.00
2022-11-29T02:27:09.408Z,67.00
2022-11-29T02:30:07.212Z,67.00
2022-11-29T02:33:05.071Z,67.10
2022-11-29T02:35:51.191Z,67.10
2022-11-29T02:38:41.840Z,67.20
2022-11-29T02:41:29.932Z,67.10
2022-11-29T02:44:25.676Z,67.10
2022-11-29T02:47:08.691Z,67.30
2022-11-29T02:49:52.408Z,67.30
2022-11-29T02:52:28.763Z,67.30
2022-11-29T02:55:07.407Z,67.20
2022-11-29T02:57:45.771Z,67.20
2022-11-29T03:00:18.492Z,67.30
2022-11-29T03:02:55.996Z,67.40
2022-11-29T03:05:39.933Z,67.40
2022-11-29T03:08:16.679Z,67.40
2022-11-29T03:10:58.212Z,67.40
2022-11-29T03:13:44.540Z,67.50
2022-11-29T03:16:21.415Z,67.40
2022-11-29T03:19:06.544Z,67.50
2022-11-29T03:21:48.499Z,67.50
2022-11-29T03:24:23.680Z,67.50
2022-11-29T03:27:02.589Z,67.80
2022-11-29T03:29:39.235Z,67.90
2022-11-29T03:32:15.240Z,67.90
2022-11-29T03:34:57.753Z,68.00
2022-11-29T03:37:38.028Z,67.90
2022-11-29T03:40:11.191Z,67.90
2022-11-29T03:42:47.656Z,67.90
2022-11-29T03:45:25.499Z,67.90
2022-11-29T03:48:02.645Z,67.90
2022-11-29T03:50:39.088Z,67.90
2022-11-29T03:53:19.957Z,67.90
2022-11-29T03:55:55.128Z,67.90
2022-11-29T03:58:38.530Z,67.90
2022-11-29T04:01:38.171Z,67.90
2022-11-29T04:04:44.192Z,67.90
2022-11-29T04:07:35.161Z,67.90
2022-11-29T04:10:39.494Z,68.00
2022-11-29T04:13:47.698Z,67.90
2022-11-29T04:16:50.709Z,68.00
2022-11-29T04:19:52.412Z,68.00
2022-11-29T04:22:39.248Z,68.00
2022-11-29T04:25:42.580Z,68.00
2022-11-29T04:28:52.530Z,68.00
2022-11-29T04:31:37.258Z,68.10
2022-11-29T04:34:31.140Z,68.10
2022-11-29T04:37:17.385Z,68.00
2022-11-29T04:40:06.215Z,68.10
2022-11-29T04:42:57.278Z,68.10
2022-11-29T04:45:52.676Z,68.10
2022-11-29T04:48:38.603Z,68.10
2022-11-29T04:51:19.546Z,68.10
2022-11-29T04:53:56.393Z,68.20
2022-11-29T04:56:38.995Z,68.10
2022-11-29T04:59:18.553Z,68.10
2022-11-29T05:02:00.024Z,68.10
2022-11-29T05:04:36.938Z,68.60
2022-11-29T05:07:13.916Z,68.50
2022-11-29T05:09:58.909Z,68.50
2022-11-29T05:12:36.736Z,68.50
2022-11-29T05:15:34.631Z,68.50
2022-11-29T05:18:14.344Z,68.50
2022-11-29T05:20:50.860Z,68.50
2022-11-29T05:23:32.389Z,68.40
2022-11-29T05:26:07.795Z,68.40
2022-11-29T05:28:48.999Z,68.40
2022-11-29T05:31:43.199Z,68.50
2022-11-29T05:34:35.914Z,68.50
2022-11-29T05:37:17.736Z,68.50
2022-11-29T05:40:00.253Z,68.40
2022-11-29T05:42:59.148Z,68.40
2022-11-29T05:45:34.933Z,68.50
2022-11-29T05:48:16.539Z,68.50
2022-11-29T05:50:50.608Z,68.40
2022-11-29T05:53:26.236Z,68.40
2022-11-29T05:56:06.449Z,68.40
2022-11-29T05:58:44.351Z,68.30
2022-11-29T06:01:23.194Z,68.40
2022-11-29T06:04:07.901Z,68.40
2022-11-29T06:06:46.603Z,68.40
2022-11-29T06:09:22.039Z,68.90
2022-11-29T06:11:56.628Z,69.10
2022-11-29T06:14:37.890Z,69.10
2022-11-29T06:17:39.184Z,69.10
2022-11-29T06:20:29.159Z,69.10
2022-11-29T06:23:13.554Z,69.10
2022-11-29T06:26:00.655Z,69.20
2022-11-29T06:28:42.998Z,69.40
2022-11-29T06:31:20.197Z,69.40
2022-11-29T06:33:58.980Z,69.40
2022-11-29T06:36:37.157Z,69.40
2022-11-29T06:39:07.889Z,69.40
2022-11-29T06:41:38.417Z,69.60
2022-11-29T06:44:09.082Z,69.80
2022-11-29T06:46:48.818Z,69.70
2022-11-29T06:49:26.735Z,69.60
2022-11-29T06:52:09.411Z,69.50
2022-11-29T06:54:51.779Z,69.60
2022-11-29T06:57:27.924Z,69.50
2022-11-29T07:00:06.586Z,69.50
2022-11-29T07:02:57.770Z,69.50
2022-11-29T07:05:31.337Z,69.60
2022-11-29T07:08:06.156Z,69.60
2022-11-29T07:10:39.203Z,69.70
2022-11-29T07:13:09.476Z,70.00
2022-11-29T07:15:41.600Z,70.00
2022-11-29T07:18:24.971Z,70.10
2022-11-29T07:21:06.395Z,70.10
2022-11-29T07:23:46.825Z,70.10
2022-11-29T07:26:25.308Z,70.20
2022-11-29T07:29:08.074Z,70.20
2022-11-29T07:31:47.695Z,70.30
2022-11-29T07:34:24.390Z,70.20
2022-11-29T07:37:03.620Z,70.00
2022-11-29T07:39:46.623Z,70.00
2022-11-29T07:42:26.160Z,70.10
2022-11-29T07:45:06.356Z,70.20
2022-11-29T07:47:36.400Z,70.20
2022-11-29T07:50:06.962Z,70.20
2022-11-29T07:52:36.852Z,70.10
2022-11-29T07:55:18.679Z,70.00
2022-11-29T07:57:49.602Z,69.90
2022-11-29T08:00:20.816Z,70.00
2022-11-29T08:02:52.179Z,70.10
2022-11-29T08:05:23.153Z,70.10
2022-11-29T08:07:54.530Z,70.00
2022-11-29T08:10:27.018Z,69.90
2022-11-29T08:12:56.956Z,70.00
2022-11-29T08:15:27.895Z,70.10
2022-11-29T08:17:57.699Z,70.10
2022-11-29T08:20:27.512Z,70.20
2022-11-29T08:22:58.464Z,70.30
2022-11-29T08:25:31.221Z,70.10
2022-11-29T08:28:01.128Z,70.10
2022-11-29T08:30:30.988Z,70.10
2022-11-29T08:33:00.833Z,70.10
2022-11-29T08:35:30.622Z,70.10
2022-11-29T08:38:00.442Z,70.20
2022-11-29T08:40:33.420Z,70.20
2022-11-29T08:43:03.464Z,70.30
2022-11-29T08:45:33.297Z,70.10
2022-11-29T08:48:03.089Z,70.40
2022-11-29T08:50:32.887Z,70.50
2022-11-29T08:53:15.180Z,70.40
2022-11-29T08:55:47.664Z,70.10
2022-11-29T08:58:18.472Z,70.20
2022-11-29T09:00:48.713Z,70.20
2022-11-29T09:03:31.125Z,70.20
2022-11-29T09:06:00.976Z,70.20
2022-11-29T09:08:30.761Z,70.30
2022-11-29T09:11:03.168Z,70.30
2022-11-29T09:13:32.949Z,70.30
2022-11-29T09:16:02.862Z,70.20
2022-11-29T09:18:32.716Z,70.20
2022-11-29T09:21:02.440Z,70.20
2022-11-29T09:23:32.165Z,70.20
2022-11-29T09:26:04.624Z,70.20
2022-11-29T09:28:34.893Z,70.70
2022-11-29T09:31:08.713Z,70.40
2022-11-29T09:33:39.866Z,70.60
2022-11-29T09:36:11.841Z,70.50
2022-11-29T09:38:42.313Z,70.50
2022-11-29T09:41:37.629Z,70.60
2022-11-29T09:44:10.929Z,70.60
2022-11-29T09:46:47.975Z,70.40
2022-11-29T09:49:35.936Z,70.30
2022-11-29T09:52:16.336Z,70.30
2022-11-29T09:54:55.136Z,70.40
2022-11-29T09:57:28.208Z,70.40
2022-11-29T10:00:00.847Z,70.30
2022-11-29T10:02:36.122Z,70.30
2022-11-29T10:05:13.668Z,70.10
2022-11-29T10:07:48.969Z,70.10
2022-11-29T10:10:23.460Z,69.90
2022-11-29T10:12:59.220Z,70.00
2022-11-29T10:15:35.987Z,69.80
2022-11-29T10:18:13.802Z,69.60
2022-11-29T10:20:49.189Z,69.40
2022-11-29T10:23:25.152Z,69.50
2022-11-29T10:25:56.437Z,69.50
2022-11-29T10:28:31.593Z,69.50
2022-11-29T10:31:08.702Z,69.50
2022-11-29T10:33:42.952Z,68.20
2022-11-29T10:36:19.516Z,68.80
2022-11-29T10:38:50.950Z,68.60
2022-11-29T10:41:25.123Z,68.60
2022-11-29T10:43:58.788Z,68.50
2022-11-29T10:46:32.891Z,68.40
2022-11-29T10:49:05.505Z,68.40
2022-11-29T10:51:36.573Z,68.20
2022-11-29T10:54:31.268Z,68.20
2022-11-29T10:57:04.289Z,68.30
2022-11-29T10:59:36.953Z,68.10
2022-11-29T11:02:06.997Z,67.50
2022-11-29T11:04:45.440Z,67.60
2022-11-29T11:07:26.125Z,67.00
2022-11-29T11:09:59.409Z,66.90
2022-11-29T11:12:31.547Z,66.30
2022-11-29T11:15:30.188Z,66.90
2022-11-29T11:18:03.865Z,66.60
2022-11-29T11:20:35.425Z,66.40
2022-11-29T11:23:06.920Z,65.10
2022-11-29T11:25:39.892Z,65.20
2022-11-29T11:28:21.746Z,65.00
2022-11-29T11:30:59.997Z,64.30
2022-11-29T11:33:32.741Z,64.20
2022-11-29T11:36:12.705Z,64.50
2022-11-29T11:38:44.606Z,64.10
2022-11-29T11:41:21.768Z,64.20
2022-11-29T11:43:59.032Z,64.10
2022-11-29T11:46:49.617Z,64.80
2022-11-29T11:49:29.170Z,64.20
2022-11-29T11:52:00.107Z,63.60
2022-11-29T11:54:31.403Z,62.90
2022-11-29T11:57:02.181Z,61.40
2022-11-29T11:59:32.441Z,62.50
2022-11-29T12:02:05.029Z,61.20
2022-11-29T12:04:40.316Z,61.70
2022-11-29T12:07:45.196Z,60.80
2022-11-29T12:10:20.099Z,60.20
2022-11-29T12:12:52.074Z,60.20
2022-11-29T12:15:24.769Z,59.70
2022-11-29T12:18:04.771Z,60.00
2022-11-29T12:20:41.296Z,56.60
2022-11-29T12:23:28.649Z,56.50
2022-11-29T12:26:02.937Z,55.60
2022-11-29T12:28:36.262Z,56.20
2022-11-29T12:31:19.464Z,56.20
2022-11-29T12:33:59.407Z,54.00
2022-11-29T12:36:37.726Z,53.80
2022-11-29T12:39:30.825Z,54.90
2022-11-29T12:42:06.128Z,54.50
2022-11-29T12:44:49.656Z,55.40
2022-11-29T12:47:35.722Z,55.20
2022-11-29T12:50:18.405Z,54.80
2022-11-29T12:52:54.768Z,54.70
2022-11-29T12:55:28.965Z,55.00
2022-11-29T12:58:09.518Z,56.20
2022-11-29T13:00:49.364Z,56.80
2022-11-29T13:03:25.432Z,55.30
2022-11-29T13:06:11.379Z,55.80
2022-11-29T13:09:00.096Z,55.10
2022-11-29T13:11:33.201Z,54.80
2022-11-29T13:14:41.641Z,53.90
2022-11-29T13:17:04.958Z,54.50
2022-11-29T13:19:42.164Z,55.90
2022-11-29T13:22:19.948Z,56.40
2022-11-29T13:24:54.281Z,56.00
2022-11-29T13:27:29.960Z,56.50
2022-11-29T13:30:02.020Z,56.60
2022-11-29T13:32:38.001Z,58.00
2022-11-29T13:35:14.707Z,58.10
2022-11-29T13:37:55.678Z,58.70
2022-11-29T13:40:39.358Z,58.70
2022-11-29T13:43:20.435Z,59.50
2022-11-29T13:45:55.144Z,59.90
2022-11-29T13:48:37.902Z,59.60
2022-11-29T13:51:30.721Z,59.10
2022-11-29T13:54:05.328Z,59.60
2022-11-29T13:56:43.314Z,59.90
2022-11-29T13:59:21.267Z,60.00
2022-11-29T14:01:54.118Z,60.10
2022-11-29T14:04:37.372Z,59.90
2022-11-29T14:07:11.000Z,59.90
2022-11-29T14:09:50.152Z,60.00
2022-11-29T14:12:35.973Z,59.90
2022-11-29T14:15:23.633Z,59.80
2022-11-29T14:17:56.144Z,59.90
2022-11-29T14:20:48.020Z,60.50
2022-11-29T14:23:20.732Z,60.70
2022-11-29T14:26:26.613Z,60.10
2022-11-29T14:29:01.235Z,60.90
2022-11-29T14:31:50.313Z,61.30
2022-11-29T14:34:33.223Z,61.30
2022-11-29T14:37:09.610Z,61.70
2022-11-29T14:39:47.201Z,62.10
2022-11-29T14:42:20.209Z,62.00
2022-11-29T14:44:56.139Z,62.10
2022-11-29T14:47:30.008Z,62.40
2022-11-29T14:50:03.715Z,62.80
2022-11-29T14:52:38.572Z,62.90
2022-11-29T14:55:12.000Z,63.10
2022-11-29T14:58:12.370Z,63.20
2022-11-29T15:01:08.092Z,64.20
2022-11-29T15:03:45.387Z,63.60
2022-11-29T15:06:19.794Z,63.70
2022-11-29T15:08:58.509Z,64.10
2022-11-29T15:11:50.179Z,63.50
2022-11-29T15:14:28.411Z,63.40
2022-11-29T15:17:18.635Z,64.10
2022-11-29T15:20:10.178Z,63.40
2022-11-29T15:22:51.299Z,62.90
2022-11-29T15:25:23.218Z,64.00
2022-11-29T15:27:54.565Z,64.00
2022-11-29T15:30:32.092Z,64.10
2022-11-29T15:33:07.693Z,64.00
2022-11-29T15:35:38.924Z,64.00
2022-11-29T15:38:08.798Z,64.10
2022-11-29T15:40:40.910Z,63.40
2022-11-29T15:43:18.298Z,63.90
2022-11-29T15:45:54.210Z,64.00
2022-11-29T15:48:28.701Z,63.90
2022-11-29T15:51:03.639Z,63.90
2022-11-29T15:53:38.659Z,64.00
2022-11-29T15:56:15.218Z,64.10
2022-11-29T15:58:46.226Z,64.00
2022-11-29T16:01:22.758Z,64.60
2022-11-29T16:03:57.696Z,64.00
2022-11-29T16:06:32.178Z,64.10
2022-11-29T16:09:03.673Z,64.00
2022-11-29T16:11:34.459Z,64.00
2022-11-29T16:14:16.689Z,63.70
2022-11-29T16:16:49.113Z,63.90
2022-11-29T16:19:28.081Z,64.00
2022-11-29T16:22:25.477Z,63.90
2022-11-29T16:25:03.429Z,63.90
2022-11-29T16:27:35.607Z,63.90
2022-11-29T16:30:05.821Z,63.90
2022-11-29T16:32:37.706Z,63.50
2022-11-29T16:35:17.843Z,63.50
2022-11-29T16:37:49.584Z,63.20
2022-11-29T16:40:24.656Z,63.70
2022-11-29T16:43:10.471Z,62.80
2022-11-29T16:45:41.653Z,63.00
2022-11-29T16:48:31.685Z,62.60
2022-11-29T16:51:26.314Z,63.00
2022-11-29T16:53:57.103Z,62.60
2022-11-29T16:56:29.968Z,62.40
2022-11-29T16:59:20.543Z,62.80
2022-11-29T17:01:56.955Z,62.90
2022-11-29T17:04:27.188Z,62.80
2022-11-29T17:07:00.136Z,62.20
2022-11-29T17:09:32.592Z,62.10
2022-11-29T17:12:03.386Z,62.20
2022-11-29T17:14:34.116Z,62.70
2022-11-29T17:17:04.089Z,62.00
2022-11-29T17:19:34.060Z,62.40
2022-11-29T17:22:06.648Z,62.40
2022-11-29T17:24:36.512Z,62.30
2022-11-29T17:27:06.410Z,62.60
2022-11-29T17:29:36.412Z,61.80
2022-11-29T17:32:06.406Z,62.50
2022-11-29T17:34:36.290Z,62.10
2022-11-29T17:37:08.620Z,62.50
2022-11-29T17:39:38.500Z,62.30
2022-11-29T17:42:08.420Z,61.90
2022-11-29T17:44:38.173Z,60.90
2022-11-29T17:47:08.115Z,61.00
2022-11-29T17:49:37.880Z,60.40
2022-11-29T17:52:10.785Z,60.10
2022-11-29T17:54:40.593Z,59.50
2022-11-29T17:57:10.496Z,59.20
2022-11-29T17:59:40.295Z,59.40
2022-11-29T18:02:10.150Z,59.30
2022-11-29T18:04:42.239Z,58.10
2022-11-29T18:07:17.259Z,59.10
2022-11-29T18:09:48.963Z,58.20
2022-11-29T18:12:20.152Z,58.60
2022-11-29T18:14:50.782Z,58.60
2022-11-29T18:17:20.629Z,58.90
2022-11-29T18:19:50.425Z,58.30
2022-11-29T18:22:22.945Z,57.90
2022-11-29T18:24:57.664Z,58.10
2022-11-29T18:27:39.793Z,57.60
2022-11-29T18:30:11.659Z,56.90
2022-11-29T18:32:41.480Z,57.10
2022-11-29T18:35:12.276Z,56.90
2022-11-29T18:38:13.405Z,56.60
2022-11-29T18:40:34.581Z,55.80
2022-11-29T18:43:04.493Z,56.20
2022-11-29T18:45:37.834Z,56.30
2022-11-29T18:48:08.595Z,56.10
2022-11-29T18:50:38.503Z,55.40
2022-11-29T18:53:10.904Z,55.60
2022-11-29T18:55:40.751Z,55.30
2022-11-29T18:58:10.613Z,55.60
2022-11-29T19:00:40.892Z,55.50
2022-11-29T19:03:10.764Z,56.10
2022-11-29T19:05:40.619Z,54.60
2022-11-29T19:08:13.153Z,55.30
2022-11-29T19:10:43.359Z,55.60
2022-11-29T19:13:13.172Z,55.40
2022-11-29T19:15:42.972Z,55.40
2022-11-29T19:18:12.858Z,55.60
2022-11-29T19:20:42.742Z,55.70
2022-11-29T19:23:16.372Z,56.50
2022-11-29T19:25:46.147Z,56.20
2022-11-29T19:28:15.973Z,56.40
2022-11-29T19:30:45.779Z,56.10
2022-11-29T19:33:16.466Z,56.10
2022-11-29T19:35:46.220Z,55.50
2022-11-29T19:38:18.681Z,55.70
2022-11-29T19:40:48.542Z,55.90
2022-11-29T19:43:18.329Z,55.30
2022-11-29T19:45:48.209Z,56.20
2022-11-29T19:48:18.656Z,56.30
2022-11-29T19:50:48.504Z,56.40
2022-11-29T19:53:21.504Z,56.50
2022-11-29T19:55:51.314Z,56.20
2022-11-29T19:58:21.175Z,56.20
2022-11-29T20:00:51.009Z,56.50
2022-11-29T20:03:21.093Z,56.50
2022-11-29T20:05:57.568Z,56.50
2022-11-29T20:08:30.669Z,57.10
2022-11-29T20:11:07.912Z,57.00
2022-11-29T20:13:38.033Z,57.50
2022-11-29T20:16:10.415Z,57.30
2022-11-29T20:18:45.700Z,57.40
2022-11-29T20:21:21.301Z,57.10
2022-11-29T20:23:58.229Z,57.50
2022-11-29T20:26:29.366Z,57.10
2022-11-29T20:28:59.180Z,57.50
2022-11-29T20:31:29.437Z,57.10
2022-11-29T20:34:00.043Z,56.40
2022-11-29T20:36:42.736Z,55.50
2022-11-29T20:39:30.220Z,55.30
2022-11-29T20:42:18.736Z,55.40
2022-11-29T20:44:54.860Z,54.70
2022-11-29T20:47:26.867Z,55.20
2022-11-29T20:49:57.698Z,55.30
2022-11-29T20:52:37.863Z,54.30
2022-11-29T20:55:11.076Z,54.50
2022-11-29T20:57:40.931Z,54.60
2022-11-29T21:00:15.720Z,54.70
2022-11-29T21:02:45.572Z,53.60
2022-11-29T21:05:16.323Z,54.10
2022-11-29T21:07:46.782Z,54.80
2022-11-29T21:10:19.468Z,54.50
2022-11-29T21:12:49.829Z,55.20
2022-11-29T21:15:20.683Z,54.80
2022-11-29T21:17:51.154Z,54.70
2022-11-29T21:20:24.649Z,54.80
2022-11-29T21:23:01.621Z,54.80
2022-11-29T21:25:45.839Z,55.00
2022-11-29T21:28:17.533Z,55.20
2022-11-29T21:30:48.011Z,55.30
2022-11-29T21:33:18.309Z,55.30
2022-11-29T21:35:48.856Z,55.40
2022-11-29T21:38:24.933Z,55.40
2022-11-29T21:40:57.336Z,55.30
2022-11-29T21:43:57.961Z,55.50
2022-11-29T21:46:16.974Z,55.60
2022-11-29T21:48:46.869Z,55.90
2022-11-29T21:51:16.712Z,56.50
2022-11-29T21:53:47.492Z,56.80
2022-11-29T21:56:19.881Z,56.80
2022-11-29T21:58:49.669Z,57.10
2022-11-29T22:01:21.621Z,57.40
2022-11-29T22:03:54.392Z,57.90
2022-11-29T22:06:26.154Z,57.90
2022-11-29T22:08:56.000Z,57.80
2022-11-29T22:11:35.521Z,57.70
2022-11-29T22:14:16.207Z,57.80
2022-11-29T22:16:47.907Z,58.20
2022-11-29T22:19:19.145Z,58.50
2022-11-29T22:21:50.565Z,58.30
2022-11-29T22:24:22.238Z,58.60
2022-11-29T22:26:56.082Z,58.90
2022-11-29T22:29:27.049Z,59.10
2022-11-29T22:31:59.379Z,58.90
2022-11-29T22:34:29.801Z,59.00
2022-11-29T22:36:59.663Z,59.00
2022-11-29T22:39:29.455Z,59.00
2022-11-29T22:42:01.922Z,59.00
2022-11-29T22:44:31.639Z,59.00
2022-11-29T22:47:01.475Z,59.00
2022-11-29T22:49:33.184Z,59.00
2022-11-29T22:52:03.134Z,59.00
2022-11-29T22:54:32.944Z,59.10
2022-11-29T22:57:05.325Z,59.10
2022-11-29T22:59:35.101Z,59.00
2022-11-29T23:02:04.984Z,59.00
2022-11-29T23:04:34.788Z,59.00
2022-11-29T23:07:04.578Z,59.10
2022-11-29T23:09:34.461Z,59.00
2022-11-29T23:12:07.409Z,59.00
2022-11-29T23:14:37.222Z,59.10
2022-11-29T23:17:07.420Z,59.00
2022-11-29T23:19:37.220Z,59.00
2022-11-29T23:22:06.993Z,59.10
2022-11-29T23:24:36.874Z,58.60
2022-11-29T23:27:09.261Z,58.90
2022-11-29T23:29:39.022Z,58.10
2022-11-29T23:32:08.854Z,58.00
2022-11-29T23:34:38.644Z,58.20
2022-11-29T23:37:08.423Z,58.50
2022-11-29T23:39:38.163Z,58.10
2022-11-29T23:42:10.631Z,59.20
2022-11-29T23:44:40.430Z,58.70
2022-11-29T23:47:10.214Z,58.80
2022-11-29T23:49:39.968Z,58.70
2022-11-29T23:52:09.752Z,58.90
2022-11-29T23:54:39.531Z,58.70
2022-11-29T23:57:11.870Z,58.80
2022-11-29T23:59:41.685Z,58.90
